Tabriz International Airport

Airport
ICAO code: 
OITT
IATA Code: 
TBZ
Summary
ICAO Region: 
APAC
Territory: 
Location: 
Tabriz, Azarbayjan-e Sharqi
Serving: 
Tabriz
Elevation: 
4459 ft
Coordinates: 
Aerial View: 
38° 8' 2" N, 46° 14' 6" E
Metar
Observation
OITT 190700Z 04006KT 9999 FEW030 M07/M14 Q1016 A3002
Station
Tabriz
Date/Time
2022-01-19 07:00:00
Wind direction
40°
Wind speed
06 kts
Lowest cloud amount
few clouds
Temperature
-7°C
Dew point
-14°C
Humidity
57%
QNH
1016 hPa
Weather condition
n/a

Airport serving Tabriz, Iran.

Climatology

Semi-arid climate (Köppen climate classification BSk)

Runways

Designator Length Width Surface Rops
12R/30L 3516 30 ASP Yes/Yes
12L/30R 3604 45 ASP Yes/Yes
Airport map: 
Aerial View: 

Accidents and Serious Incidents at or in the vicinity of OITT

SKYbrary Partners:

Safety knowledge contributed by: